Latest Weather Observations for Double Island Point

IDQ60901

Issued at 2:21 pm EST Thursday 28 January 2021 (issued every 10 minutes, with the page automatically refreshed every 10 minutes)

About weather observations | Map of Brisbane area stations | Latest observations for Brisbane area | Other Formats
Station Details ID: 040068 Name: DOUBLE ISLAND POINT LIGHTHOUSE Lat: -25.93 Lon: 153.19 Height: 95.64 m
Data from the previous 72 hours. | See also: Recent months at Double Island Point
Date/Time
EST
Temp
°C
App
Temp
°C
Dew
Point
°C
Rel
Hum
%
Delta-T
°C
Wind Press
QNH
hPa
Press
MSL
hPa
Rain since
9am
mm
Dir  Spd
km/h
Gust
km/h
Spd
kts
Gust
kts
28/02:00pm 26.2 21.9 20.8 72 3.6 SE 44 54 24 29 1010.2 1009.7 0.2
28/01:30pm 26.6 23.4 21.1 72 3.7 SE 39 43 21 23 1010.6 1010.1 0.2
28/01:00pm 26.8 24.5 20.6 69 4.1 SE 33 41 18 22 1010.9 1010.4 0.2
28/12:30pm 26.1 24.7 22.0 78 2.8 ESE 32 35 17 19 1011.3 1010.8 0.2
28/12:00pm 26.2 23.2 22.1 78 2.8 E 41 48 22 26 1011.3 1010.8 0.2
28/11:46am 26.3 23.6 21.9 77 3.0 ESE 39 57 21 31 1011.2 1010.7 0.2
28/11:30am 26.6 23.2 21.4 73 3.5 SE 41 46 22 25 1011.4 1010.9 0.2
28/11:00am 26.8 23.9 21.6 73 3.5 ESE 39 48 21 26 1011.5 1011.0 0.2
28/10:30am 26.1 23.0 22.0 78 2.8 ESE 41 48 22 26 1011.5 1011.0 0.2
28/10:00am 26.1 23.5 22.8 82 2.2 ESE 41 48 22 26 1011.6 1011.1 0.2
28/09:54am 25.8 23.9 23.5 87 1.6 ESE 39 50 21 27 1011.7 1011.2 0.2
28/09:30am 23.8 24.3 23.3 97 0.3 SSE 26 37 14 20 1011.9 1011.4 0.2
28/09:00am 23.1 24.0 21.9 93 0.8 ESE 20 30 11 16 1011.8 1011.3 1.2
28/08:50am 22.6 20.5 20.9 90 1.1 E 33 52 18 28 1011.7 1011.2 1.2
28/08:30am 24.1 21.1 21.4 85 1.8 ESE 39 46 21 25 1011.4 1010.9 0.4
28/08:05am 23.9 20.8 20.4 81 2.3 ESE 37 56 20 30 1011.6 1011.1 0.4
28/08:00am 25.6 22.2 20.6 74 3.3 ESE 39 46 21 25 1011.5 1011.0 0.0
28/07:30am 26.3 23.4 20.8 71 3.6 ESE 37 44 20 24 1011.0 1010.5 0.0
28/07:00am 26.1 22.3 21.3 75 3.2 ESE 43 48 23 26 1010.8 1010.3 0.0
28/06:30am 25.2 22.0 21.1 78 2.7 ESE 39 46 21 25 1010.5 1010.0 0.0
28/06:00am 25.3 22.1 21.0 77 2.8 ESE 39 44 21 24 1010.1 1009.6 0.0
28/05:30am 24.7 22.8 22.0 85 1.8 ESE 35 41 19 22 1009.8 1009.3 0.0
28/05:00am 24.3 21.8 20.8 81 2.3 ESE 35 41 19 22 1009.4 1008.9 0.0
28/04:30am 24.0 21.1 21.5 86 1.7 ESE 39 50 21 27 1009.1 1008.6 0.0
28/04:22am 24.0 23.0 21.9 88 1.4 ESE 30 50 16 27 1009.1 1008.6 0.0
28/04:00am 23.8 23.3 21.5 87 1.5 ESE 26 30 14 16 1009.2 1008.7 0.0
28/03:30am 23.4 22.8 21.3 88 1.4 E 26 30 14 16 1009.0 1008.5 0.0
28/03:00am 23.9 20.5 21.4 86 1.7 ESE 41 50 22 27 1008.9 1008.4 0.0
28/02:56am 24.2 22.0 21.5 85 1.8 ESE 35 50 19 27 1008.8 1008.3 0.0
28/02:30am 24.8 24.3 21.5 82 2.2 SE 26 32 14 17 1009.1 1008.6 0.0
28/02:00am 24.7 24.5 21.2 81 2.3 SE 24 30 13 16 1009.3 1008.8 0.0
28/01:30am 24.7 23.6 21.0 80 2.4 ESE 28 32 15 17 1009.4 1008.9 0.0
28/01:00am 24.9 23.1 21.2 80 2.5 SE 32 35 17 19 1009.4 1008.9 0.0
28/12:30am 24.7 22.8 21.0 80 2.4 ESE 32 35 17 19 1009.6 1009.1 0.0
28/12:00am 24.7 23.6 21.0 80 2.4 ESE 28 32 15 17 1009.8 1009.3 0.0
 
Date/Time
EST
Temp
°C
App
Temp
°C
Dew
Point
°C
Rel
Hum
%
Delta-T
°C
Wind Press
QNH
hPa
Press
MSL
hPa
Rain since
9am
mm
Dir  Spd
km/h
Gust
km/h
Spd
kts
Gust
kts
27/11:30pm 24.8 24.1 21.1 80 2.4 ESE 26 32 14 17 1010.1 1009.6 0.0
27/11:00pm 24.8 23.8 21.3 81 2.3 ESE 28 33 15 18 1010.2 1009.7 0.0
27/10:30pm 24.8 24.4 21.7 83 2.1 ESE 26 32 14 17 1010.2 1009.7 0.0
27/10:00pm 24.9 23.0 21.0 79 2.6 ESE 32 33 17 18 1010.4 1009.9 0.0
27/09:30pm 24.9 23.7 20.8 78 2.7 E 28 35 15 19 1010.4 1009.9 0.0
27/09:00pm 24.9 23.8 21.0 79 2.6 E 28 33 15 18 1010.5 1010.0 0.0
27/08:30pm 25.1 24.0 21.0 78 2.7 E 28 32 15 17 1010.3 1009.8 0.0
27/08:00pm 25.2 23.6 21.5 80 2.5 E 32 35 17 19 1010.0 1009.5 0.0
27/07:30pm 25.2 24.1 21.1 78 2.7 E 28 32 15 17 1009.9 1009.4 0.0
27/07:00pm 25.3 23.9 21.2 78 2.7 E 30 35 16 19 1009.6 1009.1 0.0
27/06:30pm 25.5 24.8 21.8 80 2.5 ESE 28 30 15 16 1009.3 1008.8 0.0
27/06:00pm 25.6 24.8 21.7 79 2.6 E 28 32 15 17 1009.0 1008.5 0.0
27/05:30pm 26.1 25.8 21.1 74 3.3 ESE 24 28 13 15 1008.7 1008.2 0.0
27/05:00pm 26.7 26.5 21.2 72 3.7 ESE 24 28 13 15 1008.6 1008.1 0.0
27/04:30pm 27.1 27.5 21.8 73 3.6 ESE 22 26 12 14 1008.5 1008.0 0.0
27/04:00pm 27.7 28.6 21.5 69 4.2 E 19 22 10 12 1008.5 1008.0 0.0
27/03:30pm 28.0 28.8 21.3 67 4.5 E 19 20 10 11 1008.4 1007.9 0.0
27/03:00pm 28.8 30.0 22.1 67 4.5 E 19 20 10 11 1008.5 1008.0 0.0
27/02:30pm 28.9 31.1 22.6 69 4.3 ENE 15 19 8 10 1008.8 1008.3 0.0
27/02:00pm 26.9 28.6 22.3 76 3.1 ESE 17 20 9 11 1009.0 1008.5 0.0
27/01:30pm 27.2 27.9 21.5 71 3.8 E 20 26 11 14 1009.1 1008.6 0.0
27/01:00pm 26.6 26.9 22.2 77 3.0 E 24 32 13 17 1009.0 1008.5 0.0
27/12:30pm 28.9 30.9 22.2 67 4.5 E 15 19 8 10 1009.1 1008.6 0.0
27/12:00pm 30.7 33.3 22.6 62 5.6 ENE 13 17 7 9 1009.3 1008.8 0.0
27/11:30am 29.9 32.5 22.6 65 5.0 E 13 17 7 9 1009.4 1008.9 0.0
27/11:00am 30.5 33.2 22.9 64 5.2 E 13 19 7 10 1009.6 1009.1 0.0
27/10:30am 30.8 33.3 23.2 64 5.2 E 15 19 8 10 1009.7 1009.2 0.0
27/10:00am 30.4 33.8 23.3 66 4.9 ENE 11 17 6 9 1009.8 1009.3 0.0
27/09:30am 28.5 30.2 22.3 69 4.2 E 17 20 9 11 1009.7 1009.2 0.0
27/09:00am 29.6 31.6 22.3 65 5.0 E 15 19 8 10 1009.5 1009.0 0.0
27/08:30am 29.1 31.6 23.1 70 4.1 E 15 17 8 9 1009.5 1009.0 0.0
27/08:00am 27.9 31.1 23.7 78 2.9 E 13 17 7 9 1009.2 1008.7 0.0
27/07:30am 25.5 26.6 22.4 83 2.1 E 20 26 11 14 1009.0 1008.5 0.0
27/07:00am 25.2 26.9 22.3 84 2.0 E 17 20 9 11 1008.8 1008.3 0.0
27/06:30am 25.0 26.9 22.1 84 1.9 E 15 17 8 9 1008.5 1008.0 0.0
27/06:00am 24.5 26.8 22.0 86 1.7 E 13 15 7 8 1008.2 1007.7 0.0
27/05:30am 24.3 27.3 22.0 87 1.5 ENE 9 11 5 6 1008.0 1007.5 0.0
27/05:00am 24.3 27.3 22.0 87 1.5 NE 9 13 5 7 1007.7 1007.2 0.0
27/04:30am 24.1 27.4 21.8 87 1.5 NNE 7 11 4 6 1007.5 1007.0 0.0
27/04:00am 24.0 26.9 21.7 87 1.5 NE 9 13 5 7 1007.1 1006.6 0.0
27/03:30am 24.0 26.8 21.5 86 1.7 NE 9 13 5 7 1007.2 1006.7 0.0
27/03:00am 24.0 26.5 21.1 84 1.9 NE 9 15 5 8 1007.3 1006.8 0.0
27/02:30am 24.3 25.9 21.4 84 1.9 NNE 15 20 8 11 1007.2 1006.7 0.0
27/02:00am 24.4 25.3 21.5 84 1.9 NNE 19 22 10 12 1007.5 1007.0 0.0
27/01:30am 24.3 25.9 21.4 84 1.9 NNE 15 20 8 11 1007.5 1007.0 0.0
27/01:00am 24.5 25.7 21.4 83 2.1 NE 17 24 9 13 1007.6 1007.1 0.0
27/12:30am 24.5 27.2 22.2 87 1.5 NNE 11 15 6 8 1007.9 1007.4 0.0
27/12:00am 24.5 26.5 22.2 87 1.5 ENE 15 20 8 11 1008.0 1007.5 0.0
 
Date/Time
EST
Temp
°C
App
Temp
°C
Dew
Point
°C
Rel
Hum
%
Delta-T
°C
Wind Press
QNH
hPa
Press
MSL
hPa
Rain since
9am
mm
Dir  Spd
km/h
Gust
km/h
Spd
kts
Gust
kts
26/11:30pm 24.5 26.2 21.6 84 1.9 ENE 15 20 8 11 1008.4 1007.9 0.0
26/11:00pm 24.7 25.0 21.6 83 2.1 ENE 22 28 12 15 1008.5 1008.0 0.0
26/10:30pm 24.9 24.7 21.2 80 2.4 ENE 24 30 13 16 1008.8 1008.3 0.0
26/10:00pm 25.0 23.8 20.9 78 2.7 ENE 28 32 15 17 1009.0 1008.5 0.0
26/09:30pm 24.9 25.5 21.4 81 2.3 E 20 26 11 14 1009.0 1008.5 0.0
26/09:00pm 24.7 24.8 21.2 81 2.3 E 22 26 12 14 1008.7 1008.2 0.0
26/08:30pm 24.9 25.0 21.2 80 2.4 E 22 28 12 15 1008.4 1007.9 0.0
26/08:00pm 24.8 24.3 20.7 78 2.7 E 24 28 13 15 1008.0 1007.5 0.0
26/07:30pm 24.9 24.5 21.0 79 2.6 E 24 28 13 15 1007.6 1007.1 0.0
26/07:00pm 24.9 24.3 20.6 77 2.8 E 24 26 13 14 1007.3 1006.8 0.0
26/06:30pm 25.1 24.3 20.1 74 3.3 E 24 28 13 15 1007.1 1006.6 0.0
26/06:00pm 25.3 25.0 20.3 74 3.3 E 22 26 12 14 1006.8 1006.2 0.0
26/05:30pm 25.8 25.6 20.6 73 3.4 ESE 22 26 12 14 1006.5 1005.9 0.0
26/05:00pm 26.1 25.8 20.4 71 3.7 ESE 22 26 12 14 1006.2 1005.6 0.0
26/04:30pm 26.7 27.0 20.8 70 3.9 ESE 20 26 11 14 1006.1 1005.5 0.0
26/04:00pm 26.5 26.2 19.6 66 4.5 ESE 20 24 11 13 1006.3 1005.7 0.0
26/03:30pm 27.0 26.3 19.6 64 4.8 ESE 22 26 12 14 1006.5 1005.9 0.0
26/03:00pm 27.4 27.5 20.0 64 4.9 ESE 19 20 10 11 1006.6 1006.0 0.0
26/02:30pm 27.6 27.7 20.4 65 4.7 ESE 20 24 11 13 1006.7 1006.1 0.0
26/02:00pm 27.7 27.9 20.5 65 4.8 ESE 20 24 11 13 1006.9 1006.4 0.0
26/01:30pm 28.7 29.4 21.5 65 4.8 ESE 20 24 11 13 1007.4 1006.9 0.0
26/01:00pm 27.4 26.2 19.2 61 5.3 SE 24 28 13 15 1007.5 1007.0 0.0
26/12:30pm 28.1 28.5 20.9 65 4.8 SSE 20 26 11 14 1007.9 1007.4 0.0
26/12:00pm 27.6 27.4 19.7 62 5.2 SE 20 26 11 14 1008.2 1007.7 0.0
26/11:30am 27.6 27.6 19.7 62 5.2 SE 19 20 10 11 1008.3 1007.8 0.0
26/11:00am 28.1 28.4 19.6 60 5.6 SSE 17 20 9 11 1008.7 1008.2 0.0
26/10:30am 27.8 27.9 19.1 59 5.6 SSE 17 20 9 11 1008.9 1008.4 0.0
26/10:00am 27.6 28.0 18.9 59 5.6 SE 15 20 8 11 1009.0 1008.5 0.0
26/09:30am 27.0 26.9 17.8 57 5.8 SE 15 20 8 11 1009.1 1008.6 0.0
26/09:00am 26.8 26.8 18.9 62 5.1 SE 17 20 9 11 1009.2 1008.7 0.0
26/08:30am 26.5 26.5 18.9 63 4.9 SSE 17 20 9 11 1009.3 1008.8 0.0
26/08:00am 25.9 26.0 18.3 63 4.8 SE 15 19 8 10 1009.4 1008.9 0.0
26/07:30am 25.7 26.3 20.3 72 3.5 S 17 20 9 11 1009.4 1008.9 0.0
26/07:00am 23.5 23.7 20.2 82 2.1 S 19 22 10 12 1009.2 1008.7 0.0
26/06:30am 23.4 24.4 20.3 83 2.0 S 15 20 8 11 1009.1 1008.6 0.0
26/06:00am 22.3 22.8 20.0 87 1.5 S 17 19 9 10 1008.8 1008.3 0.0
26/05:30am 22.1 22.7 20.2 89 1.2 S 17 19 9 10 1008.5 1008.0 0.0
26/05:00am 22.0 22.5 20.1 89 1.2 SSW 17 17 9 9 1008.3 1007.8 0.0
26/04:30am 22.3 22.8 19.3 83 1.9 S 15 17 8 9 1007.9 1007.4 0.0
26/04:00am 22.6 24.3 19.4 82 2.1 ESE 9 11 5 6 1007.8 1007.3 0.0
26/03:30am 23.1 25.3 18.4 75 3.0 ESE 4 7 2 4 1007.9 1007.4 0.0
26/03:00am 23.1 24.3 18.2 74 3.1 E 9 13 5 7 1007.9 1007.4 0.0
26/02:30am 23.2 24.5 18.5 75 3.0 E 9 15 5 8 1008.3 1007.8 0.0
26/02:00am 23.3 24.8 18.8 76 2.9 E 9 11 5 6 1008.6 1008.1 0.0
26/01:30am 23.4 24.9 18.9 76 2.9 E 9 13 5 7 1008.8 1008.3 0.0
26/01:00am 23.6 24.7 18.9 75 3.0 E 11 15 6 8 1009.0 1008.5 0.0
26/12:30am 23.6 24.0 18.9 75 3.0 E 15 19 8 10 1009.2 1008.7 0.0
26/12:00am 23.8 23.8 18.9 74 3.1 E 17 20 9 11 1009.5 1009.0 0.0
 
Date/Time
EST
Temp
°C
App
Temp
°C
Dew
Point
°C
Rel
Hum
%
Delta-T
°C
Wind Press
QNH
hPa
Press
MSL
hPa
Rain since
9am
mm
Dir  Spd
km/h
Gust
km/h
Spd
kts
Gust
kts
25/11:30pm 23.8 23.9 18.4 72 3.4 E 15 20 8 11 1009.8 1009.3 0.0
25/11:00pm 23.9 23.8 18.8 73 3.3 E 17 20 9 11 1009.9 1009.4 0.0
25/10:30pm 24.0 23.3 18.2 70 3.7 E 19 24 10 13 1010.0 1009.5 0.0
25/10:00pm 24.1 23.5 18.5 71 3.6 E 19 24 10 13 1010.2 1009.7 0.0
25/09:30pm 24.2 23.5 18.2 69 3.8 E 19 26 10 14 1010.2 1009.7 0.0
25/09:00pm 24.1 23.0 17.8 68 4.0 E 20 26 11 14 1010.1 1009.6 0.0
25/08:30pm 24.2 22.6 17.4 65 4.2 E 22 30 12 16 1010.0 1009.5 0.0
25/08:00pm 24.3 23.0 18.2 68 3.9 E 22 28 12 15 1009.9 1009.4 0.0
25/07:30pm 24.4 22.3 18.1 68 4.0 E 26 30 14 16 1009.9 1009.4 0.0
25/07:00pm 24.5 22.8 18.2 68 4.0 E 24 28 13 15 1009.7 1009.2 0.0
25/06:30pm 24.9 23.0 17.6 64 4.6 E 24 32 13 17 1009.4 1008.9 0.0
25/06:00pm 25.4 23.6 18.8 67 4.2 E 26 33 14 18 1009.4 1008.9 0.0
25/05:30pm 25.7 24.2 18.6 65 4.5 E 24 30 13 16 1009.4 1008.9 0.0
25/05:00pm 25.7 23.8 18.6 65 4.5 E 26 30 14 16 1009.1 1008.6 0.0
25/04:30pm 26.3 25.1 19.2 65 4.6 E 24 30 13 16 1009.2 1008.7 0.0
25/04:00pm 26.6 25.8 19.2 64 4.8 ESE 22 26 12 14 1009.2 1008.7 0.0
25/03:30pm 26.8 25.7 19.4 64 4.8 E 24 28 13 15 1009.3 1008.8 0.0
25/03:00pm 27.3 26.6 19.4 62 5.1 E 22 28 12 15 1009.7 1009.2 0.0
25/02:30pm 27.6 27.1 19.1 59 5.5 ESE 20 24 11 13 1010.2 1009.7 0.0

Latest Capital City Observations: Canberra | Sydney | Melbourne | Brisbane | Adelaide | Perth | Hobart | Darwin

Other formats

Comma delimited format used in spreadsheet applications
http://www.bom.gov.au/fwo/IDQ60901/IDQ60901.94584.axf

JavaScript Object Notation format (JSON) in row-major order
http://www.bom.gov.au/fwo/IDQ60901/IDQ60901.94584.json

Data quality

Most of these data are generated automatically and are frequently updated. Quality checks on data are not normally performed. It is possible for incorrect values to appear. Refer to information at About Latest Weather Observations and please check the disclaimer before using these data.